Grand Rapids, MI (49504)

8:20 AM EDT on October 01, 2016 (GMT -0400)
Near Lake Michigan Dr and Collindale | | Change Station

Elev 748 ft 42.98 °N, 85.74 °W | Updated 5 seconds ago

Rain
Rain Mist
57.6 °F
Feels Like 57.6 °F
N
3.0
Wind Variable Wind from ESE
Gusts 3.0 mph

Today
High -- | Low -- °F
--% Chance of Precip.
Yesterday
High -- | Low -- °F
Precip. -- in
Pressure 30.06 in
Visibility 1.5 miles
Clouds Overcast 500 ft
Dew Point 56 °F
Humidity 93%
Rainfall 0.13 in
Snow Depth Not available.
7:40 AM 7:23 PM
New Moon, 0% visible
SPECI KGRR 011216Z 06007KT 1 1/2SM RA BR OVC005 14/13 A3006 RMK AO2 P0005 T01390128
Pressure 30.06 in
Visibility 1.5 miles
Clouds Overcast 500 ft
Dew Point 56 °F
Humidity 93%
Rainfall 0.13 in
Snow Depth Not available.
7:40 AM 7:23 PM
New Moon, 0% visible
SPECI KGRR 011216Z 06007KT 1 1/2SM RA BR OVC005 14/13 A3006 RMK AO2 P0005 T01390128

10-Day Weather Forecast

Almanac

Astronomy

Oct. 01, 2016 Rise Set
Actual Time
Civil Twilight
Nautical Twilight
Astronomical Twilight
Moon
Length of Visible Light
Length of Day
Tomorrow will be .
, % of the Moon is Illuminated

Today's Extremes

State Highs State Lows

Community

WunderPhotos

Upload Photos

1,942,920 photos uploaded!

WunderBlog® & News

Nearby

Air Quality

  Air Quality AQ Index Pollutant
Not available.

Snow Depth

Station Depth Elevation

Earthquake Activity

City Distance Mag. Time & Date
Minimum magnitude displayed is 2.5.

Coastal Water Temperatures

Place Temperature

Stations

Nearby Weather Stations

Station Location Temp. Windchill Dew Point Humidity Wind Precip. Elev Updated Type
                   

Watches & Warnings

There are currently no watches in effect.